createdAt,value
2022-08-09T00:00:11.277Z,57.40
2022-08-09T00:02:43.004Z,57.60
2022-08-09T00:06:15.537Z,57.60
2022-08-09T00:08:31.628Z,57.80
2022-08-09T00:11:00.162Z,57.80
2022-08-09T00:13:28.417Z,57.80
2022-08-09T00:16:02.889Z,58.10
2022-08-09T00:18:35.673Z,58.10
2022-08-09T00:21:08.930Z,58.20
2022-08-09T00:23:58.311Z,58.20
2022-08-09T00:26:33.115Z,58.20
2022-08-09T00:29:02.675Z,58.90
2022-08-09T00:31:59.132Z,58.60
2022-08-09T00:34:19.859Z,58.60
2022-08-09T00:36:49.217Z,58.60
2022-08-09T00:40:13.020Z,58.80
2022-08-09T00:44:10.865Z,58.70
2022-08-09T00:44:53.664Z,58.70
2022-08-09T00:47:24.590Z,58.60
2022-08-09T00:49:54.869Z,58.80
2022-08-09T00:52:30.082Z,58.80
2022-08-09T00:55:01.111Z,58.80
2022-08-09T00:57:34.318Z,58.90
2022-08-09T01:00:21.641Z,59.00
2022-08-09T01:03:06.198Z,59.20
2022-08-09T01:05:55.915Z,59.60
2022-08-09T01:08:51.520Z,61.10
2022-08-09T01:11:33.152Z,59.80
2022-08-09T01:14:37.658Z,60.20
2022-08-09T01:17:17.895Z,61.40
2022-08-09T01:20:04.343Z,60.10
2022-08-09T01:22:55.164Z,60.20
2022-08-09T01:25:42.028Z,60.10
2022-08-09T01:28:16.335Z,60.90
2022-08-09T01:30:51.312Z,59.80
2022-08-09T01:33:25.491Z,59.80
2022-08-09T01:36:15.390Z,59.70
2022-08-09T01:38:48.562Z,61.10
2022-08-09T01:41:26.029Z,59.70
2022-08-09T01:43:58.305Z,59.90
2022-08-09T01:46:28.278Z,60.20
2022-08-09T01:49:14.517Z,60.70
2022-08-09T01:51:53.832Z,60.20
2022-08-09T01:54:33.260Z,60.20
2022-08-09T01:57:11.047Z,60.60
2022-08-09T01:59:51.537Z,60.20
2022-08-09T02:02:29.479Z,60.30
2022-08-09T02:05:15.888Z,60.40
2022-08-09T02:08:35.764Z,60.50
2022-08-09T02:10:53.013Z,61.40
2022-08-09T02:13:26.072Z,60.40
2022-08-09T02:16:06.658Z,60.70
2022-08-09T02:18:38.166Z,60.60
2022-08-09T02:21:21.828Z,60.90
2022-08-09T02:23:56.767Z,60.90
2022-08-09T02:26:28.976Z,61.20
2022-08-09T02:29:07.179Z,61.20
2022-08-09T02:31:41.524Z,61.40
2022-08-09T02:34:26.036Z,61.10
2022-08-09T02:37:12.012Z,61.20
2022-08-09T02:39:54.913Z,61.10
2022-08-09T02:42:36.087Z,61.50
2022-08-09T02:45:14.237Z,61.80
2022-08-09T02:47:57.793Z,61.60
2022-08-09T02:50:55.815Z,61.40
2022-08-09T02:53:35.103Z,63.10
2022-08-09T02:56:05.108Z,61.80
2022-08-09T02:58:36.715Z,61.90
2022-08-09T03:01:07.983Z,62.10
2022-08-09T03:04:17.563Z,62.20
2022-08-09T03:06:29.103Z,62.40
2022-08-09T03:08:57.703Z,62.30
2022-08-09T03:12:04.571Z,62.30
2022-08-09T03:14:15.992Z,62.40
2022-08-09T03:16:48.236Z,62.40
2022-08-09T03:19:52.275Z,62.70
2022-08-09T03:22:12.050Z,62.90
2022-08-09T03:25:06.481Z,62.80
2022-08-09T03:27:45.226Z,62.60
2022-08-09T03:30:29.176Z,62.50
2022-08-09T03:33:13.020Z,62.60
2022-08-09T03:36:12.676Z,62.60
2022-08-09T03:38:32.634Z,62.60
2022-08-09T03:40:59.890Z,62.70
2022-08-09T03:43:32.195Z,62.90
2022-08-09T03:46:04.065Z,62.90
2022-08-09T03:48:56.851Z,62.90
2022-08-09T03:51:57.325Z,63.10
2022-08-09T03:54:14.957Z,62.80
2022-08-09T03:56:46.653Z,62.70
2022-08-09T03:59:20.843Z,63.00
2022-08-09T04:01:59.010Z,62.90
2022-08-09T04:04:32.562Z,63.00
2022-08-09T04:07:04.975Z,63.30
2022-08-09T04:09:47.477Z,63.30
2022-08-09T04:12:30.090Z,63.30
2022-08-09T04:15:01.077Z,63.20
2022-08-09T04:17:29.792Z,63.20
2022-08-09T04:19:57.436Z,63.90
2022-08-09T04:22:24.728Z,63.00
2022-08-09T04:24:55.191Z,63.20
2022-08-09T04:27:22.490Z,63.50
2022-08-09T04:29:50.481Z,63.80
2022-08-09T04:32:23.606Z,64.10
2022-08-09T04:35:01.211Z,64.30
2022-08-09T04:37:45.538Z,64.40
2022-08-09T04:40:28.916Z,64.70
2022-08-09T04:43:01.662Z,64.80
2022-08-09T04:45:35.778Z,64.90
2022-08-09T04:48:10.701Z,65.10
2022-08-09T04:50:38.352Z,65.10
2022-08-09T04:53:13.320Z,65.20
2022-08-09T04:55:58.200Z,65.30
2022-08-09T04:58:31.928Z,65.40
2022-08-09T05:01:02.124Z,65.70
2022-08-09T05:03:40.434Z,65.70
2022-08-09T05:06:25.774Z,65.90
2022-08-09T05:08:59.940Z,65.90
2022-08-09T05:11:32.432Z,65.80
2022-08-09T05:14:06.642Z,65.90
2022-08-09T05:16:58.260Z,65.90
2022-08-09T05:19:26.226Z,66.00
2022-08-09T05:21:59.078Z,65.90
2022-08-09T05:24:27.640Z,66.00
2022-08-09T05:26:54.829Z,66.20
2022-08-09T05:29:24.527Z,66.30
2022-08-09T05:32:00.621Z,66.30
2022-08-09T05:34:31.622Z,66.20
2022-08-09T05:37:05.202Z,66.30
2022-08-09T05:39:42.610Z,66.20
2022-08-09T05:42:17.552Z,66.40
2022-08-09T05:44:50.619Z,66.10
2022-08-09T05:47:21.422Z,66.00
2022-08-09T05:50:26.744Z,66.00
2022-08-09T05:52:39.158Z,66.00
2022-08-09T05:55:08.935Z,66.10
2022-08-09T05:57:55.241Z,66.00
2022-08-09T06:00:30.659Z,66.00
2022-08-09T06:03:03.466Z,66.10
2022-08-09T06:05:57.765Z,65.90
2022-08-09T06:08:24.583Z,65.80
2022-08-09T06:10:56.961Z,65.50
2022-08-09T06:13:25.922Z,65.50
2022-08-09T06:15:56.339Z,65.20
2022-08-09T06:18:25.684Z,65.10
2022-08-09T06:20:57.955Z,64.90
2022-08-09T06:23:57.519Z,64.80
2022-08-09T06:26:20.245Z,64.70
2022-08-09T06:29:00.663Z,64.60
2022-08-09T06:31:39.288Z,64.50
2022-08-09T06:34:23.120Z,64.30
2022-08-09T06:36:57.157Z,63.90
2022-08-09T06:39:48.084Z,63.60
2022-08-09T06:42:13.505Z,63.40
2022-08-09T06:44:40.873Z,63.00
2022-08-09T06:47:08.502Z,62.90
2022-08-09T06:49:44.541Z,62.80
2022-08-09T06:52:25.085Z,62.70
2022-08-09T06:54:54.043Z,62.40
2022-08-09T06:57:42.406Z,62.10
2022-08-09T07:00:49.990Z,62.00
2022-08-09T07:02:58.168Z,61.70
2022-08-09T07:06:02.936Z,61.50
2022-08-09T07:08:12.694Z,61.30
2022-08-09T07:10:40.125Z,60.80
2022-08-09T07:13:27.466Z,60.40
2022-08-09T07:16:42.831Z,60.20
2022-08-09T07:18:42.190Z,60.10
2022-08-09T07:21:10.528Z,60.00
2022-08-09T07:23:56.364Z,59.80
2022-08-09T07:26:25.719Z,59.70
2022-08-09T07:29:08.379Z,59.40
2022-08-09T07:31:45.032Z,59.40
2022-08-09T07:34:20.404Z,59.20
2022-08-09T07:36:50.008Z,59.00
2022-08-09T07:39:19.779Z,58.80
2022-08-09T07:41:48.443Z,58.80
2022-08-09T07:44:15.691Z,58.60
2022-08-09T07:46:51.348Z,58.40
2022-08-09T07:49:19.441Z,58.20
2022-08-09T07:52:04.465Z,58.10
2022-08-09T07:54:35.177Z,58.00
2022-08-09T07:57:05.397Z,57.80
2022-08-09T07:59:45.821Z,57.50
2022-08-09T08:02:26.885Z,57.50
2022-08-09T08:04:54.127Z,57.30
2022-08-09T08:08:43.837Z,57.10
2022-08-09T08:10:10.765Z,57.00
2022-08-09T08:12:45.511Z,56.70
2022-08-09T08:15:23.018Z,56.10
2022-08-09T08:17:55.494Z,56.40
2022-08-09T08:20:32.896Z,56.20
2022-08-09T08:23:15.796Z,56.00
2022-08-09T08:25:50.358Z,55.90
2022-08-09T08:28:35.280Z,55.90
2022-08-09T08:31:13.771Z,56.00
2022-08-09T08:33:52.374Z,55.90
2022-08-09T08:36:28.511Z,55.80
2022-08-09T08:38:57.386Z,55.50
2022-08-09T08:41:24.917Z,55.40
2022-08-09T08:44:10.279Z,55.10
2022-08-09T08:46:41.894Z,55.00
2022-08-09T08:49:46.639Z,54.90
2022-08-09T08:52:58.183Z,54.60
2022-08-09T08:55:11.541Z,54.40
2022-08-09T08:57:42.732Z,54.40
2022-08-09T09:00:20.318Z,54.30
2022-08-09T09:02:53.278Z,54.00
2022-08-09T09:05:57.513Z,53.80
2022-08-09T09:08:31.098Z,53.40
2022-08-09T09:11:04.067Z,53.40
2022-08-09T09:13:55.874Z,53.10
2022-08-09T09:16:32.354Z,52.50
2022-08-09T09:22:11.798Z,52.40
2022-08-09T09:24:49.556Z,51.00
2022-08-09T09:28:05.361Z,51.50
2022-08-09T09:33:15.498Z,51.70
2022-08-09T09:36:02.046Z,51.30
2022-08-09T09:38:42.777Z,50.30
2022-08-09T09:41:11.241Z,50.10
2022-08-09T09:44:11.003Z,51.00
2022-08-09T09:46:43.508Z,50.70
2022-08-09T09:49:32.299Z,49.70
2022-08-09T09:52:35.800Z,49.70
2022-08-09T09:55:23.828Z,49.60
2022-08-09T09:58:16.808Z,49.10
2022-08-09T10:00:59.719Z,49.00
2022-08-09T10:03:58.247Z,48.30
2022-08-09T10:06:46.845Z,48.00
2022-08-09T10:09:22.602Z,48.00
2022-08-09T10:12:26.783Z,48.90
2022-08-09T10:14:51.508Z,47.90
2022-08-09T10:17:50.829Z,48.70
2022-08-09T10:20:32.221Z,48.50
2022-08-09T10:23:21.972Z,47.70
2022-08-09T10:26:07.915Z,47.30
2022-08-09T10:28:41.185Z,48.30
2022-08-09T10:32:20.893Z,48.20
2022-08-09T10:34:10.209Z,48.00
2022-08-09T10:36:49.925Z,47.90
2022-08-09T10:39:20.387Z,47.80
2022-08-09T10:41:48.476Z,47.60
2022-08-09T10:44:24.699Z,47.50
2022-08-09T10:48:16.811Z,46.90
2022-08-09T10:51:06.121Z,45.90
2022-08-09T10:53:55.791Z,46.20
2022-08-09T10:56:40.882Z,46.70
2022-08-09T10:59:23.484Z,46.20
2022-08-09T11:03:13.617Z,45.60
2022-08-09T11:05:25.035Z,46.40
2022-08-09T11:07:59.455Z,45.50
2022-08-09T11:10:53.468Z,46.20
2022-08-09T11:13:50.133Z,45.20
2022-08-09T11:16:39.384Z,46.00
2022-08-09T11:19:10.937Z,45.30
2022-08-09T11:22:10.698Z,46.10
2022-08-09T11:25:15.323Z,45.10
2022-08-09T11:28:04.750Z,45.00
2022-08-09T11:30:37.576Z,45.70
2022-08-09T11:33:44.334Z,46.00
2022-08-09T11:36:35.566Z,45.10
2022-08-09T11:39:04.859Z,45.50
2022-08-09T11:41:37.890Z,45.40
2022-08-09T11:44:07.722Z,45.30
2022-08-09T11:46:55.751Z,45.10
2022-08-09T11:50:53.113Z,44.90
2022-08-09T11:53:15.561Z,44.70
2022-08-09T11:55:52.405Z,44.60
2022-08-09T11:58:30.303Z,45.50
2022-08-09T12:01:15.432Z,45.30
2022-08-09T12:04:02.314Z,44.70
2022-08-09T12:06:34.884Z,44.80
2022-08-09T12:09:15.185Z,45.30
2022-08-09T12:12:06.110Z,44.60
2022-08-09T12:15:08.007Z,44.20
2022-08-09T12:17:34.166Z,44.80
2022-08-09T12:20:23.755Z,44.60
2022-08-09T12:22:58.678Z,44.50
2022-08-09T12:25:37.006Z,44.50
2022-08-09T12:29:13.166Z,44.60
2022-08-09T12:31:58.785Z,44.00
2022-08-09T12:34:13.967Z,43.60
2022-08-09T12:36:58.844Z,44.10
2022-08-09T12:39:43.332Z,43.30
2022-08-09T12:42:16.646Z,44.20
2022-08-09T12:44:46.422Z,43.80
2022-08-09T12:47:23.013Z,43.70
2022-08-09T12:50:09.719Z,43.80
2022-08-09T12:53:09.018Z,43.50
2022-08-09T12:56:14.780Z,43.40
2022-08-09T12:58:24.187Z,43.40
2022-08-09T13:00:56.563Z,43.40
2022-08-09T13:03:56.981Z,43.30
2022-08-09T13:06:40.641Z,43.30
2022-08-09T13:09:31.580Z,42.90
2022-08-09T13:12:06.698Z,42.90
2022-08-09T13:14:41.636Z,43.50
2022-08-09T13:17:44.183Z,43.40
2022-08-09T13:20:14.279Z,43.20
2022-08-09T13:23:01.920Z,43.40
2022-08-09T13:25:42.347Z,43.20
2022-08-09T13:28:18.989Z,43.60
2022-08-09T13:32:13.456Z,43.60
2022-08-09T13:33:56.985Z,42.50
2022-08-09T13:36:41.713Z,43.30
2022-08-09T13:41:50.542Z,43.30
2022-08-09T13:42:12.589Z,43.70
2022-08-09T13:44:45.778Z,43.80
2022-08-09T13:47:33.151Z,43.70
2022-08-09T13:50:18.154Z,43.50
2022-08-09T13:52:57.350Z,43.50
2022-08-09T13:55:29.007Z,43.50
2022-08-09T13:57:58.529Z,43.50
2022-08-09T14:00:29.493Z,43.60
2022-08-09T14:03:16.884Z,43.50
2022-08-09T14:06:01.460Z,43.50
2022-08-09T14:08:31.761Z,43.40
2022-08-09T14:11:00.518Z,43.40
2022-08-09T14:14:23.329Z,43.20
2022-08-09T14:16:28.016Z,42.80
2022-08-09T14:18:58.200Z,42.80
2022-08-09T14:21:29.380Z,42.80
2022-08-09T14:24:01.305Z,42.90
2022-08-09T14:26:38.264Z,43.10
2022-08-09T14:30:15.193Z,42.90
2022-08-09T14:31:56.550Z,42.90
2022-08-09T14:34:27.341Z,42.90
2022-08-09T14:37:06.920Z,42.70
2022-08-09T14:39:46.842Z,42.80
2022-08-09T14:42:30.469Z,42.90
2022-08-09T14:46:39.900Z,42.90
2022-08-09T14:47:57.423Z,42.60
2022-08-09T14:50:34.261Z,42.60
2022-08-09T14:53:12.041Z,42.50
2022-08-09T14:55:50.120Z,42.40
2022-08-09T14:58:17.957Z,42.40
2022-08-09T15:00:48.338Z,42.40
2022-08-09T15:03:20.095Z,42.20
2022-08-09T15:05:52.452Z,42.00
2022-08-09T15:08:25.771Z,41.90
2022-08-09T15:11:00.643Z,41.80
2022-08-09T15:13:47.809Z,41.90
2022-08-09T15:16:16.741Z,42.00
2022-08-09T15:18:44.037Z,42.20
2022-08-09T15:21:57.382Z,42.40
2022-08-09T15:24:15.323Z,42.20
2022-08-09T15:26:46.826Z,42.20
2022-08-09T15:30:58.488Z,42.00
2022-08-09T15:32:02.465Z,41.70
2022-08-09T15:34:34.285Z,41.50
2022-08-09T15:37:04.302Z,41.30
2022-08-09T15:39:35.097Z,41.40
2022-08-09T15:42:20.439Z,41.10
2022-08-09T15:44:50.067Z,41.20
2022-08-09T15:47:21.673Z,41.40
2022-08-09T15:50:03.578Z,41.20
2022-08-09T15:52:38.112Z,41.40
2022-08-09T15:55:09.070Z,41.30
2022-08-09T15:57:44.353Z,41.10
2022-08-09T16:00:25.919Z,40.90
2022-08-09T16:02:56.145Z,40.90
2022-08-09T16:05:47.794Z,40.70
2022-08-09T16:08:30.570Z,40.20
2022-08-09T16:11:02.189Z,40.20
2022-08-09T16:14:02.811Z,40.10
2022-08-09T16:16:19.361Z,39.80
2022-08-09T16:18:47.946Z,39.50
2022-08-09T16:21:17.763Z,39.30
2022-08-09T16:23:58.904Z,39.10
2022-08-09T16:26:33.709Z,39.00
2022-08-09T16:29:14.345Z,38.90
2022-08-09T16:32:18.512Z,38.60
2022-08-09T16:34:55.403Z,38.40
2022-08-09T16:37:53.811Z,38.50
2022-08-09T16:40:10.416Z,38.50
2022-08-09T16:42:44.805Z,38.30
2022-08-09T16:45:19.838Z,38.10
2022-08-09T16:48:42.028Z,37.80
2022-08-09T16:50:38.382Z,37.60
2022-08-09T16:53:06.383Z,37.40
2022-08-09T16:55:58.412Z,37.10
2022-08-09T16:58:21.410Z,37.00
2022-08-09T17:00:50.618Z,36.90
2022-08-09T17:03:21.998Z,36.90
2022-08-09T17:06:07.733Z,36.80
2022-08-09T17:09:00.196Z,36.30
2022-08-09T17:11:37.710Z,36.70
2022-08-09T17:14:25.404Z,36.50
2022-08-09T17:17:01.777Z,36.40
2022-08-09T17:20:06.182Z,36.20
2022-08-09T17:22:35.920Z,35.90
2022-08-09T17:25:10.337Z,36.10
2022-08-09T17:27:48.936Z,36.00
2022-08-09T17:30:26.525Z,35.90
2022-08-09T17:33:04.902Z,36.00
2022-08-09T17:35:35.571Z,36.10
2022-08-09T17:38:13.910Z,36.10
2022-08-09T17:40:56.523Z,36.20
2022-08-09T17:43:34.799Z,36.40
2022-08-09T17:46:07.558Z,36.40
2022-08-09T17:48:40.640Z,36.30
2022-08-09T17:51:20.578Z,36.30
2022-08-09T17:53:52.987Z,36.40
2022-08-09T17:56:32.467Z,36.30
2022-08-09T17:59:09.485Z,36.20
2022-08-09T18:02:06.145Z,36.40
2022-08-09T18:04:27.827Z,36.40
2022-08-09T18:06:55.847Z,36.60
2022-08-09T18:09:40.303Z,36.90
2022-08-09T18:12:17.885Z,37.20
2022-08-09T18:14:54.956Z,37.40
2022-08-09T18:18:01.769Z,37.80
2022-08-09T18:20:56.513Z,38.30
2022-08-09T18:23:07.057Z,38.40
2022-08-09T18:25:50.604Z,38.70
2022-08-09T18:30:38.915Z,39.20
2022-08-09T18:31:14.788Z,39.30
2022-08-09T18:33:53.220Z,39.60
2022-08-09T18:36:31.811Z,39.90
2022-08-09T18:39:02.483Z,40.20
2022-08-09T18:41:34.398Z,40.50
2022-08-09T18:44:07.983Z,40.70
2022-08-09T18:46:50.612Z,41.00
2022-08-09T18:49:32.097Z,41.30
2022-08-09T18:51:59.761Z,41.50
2022-08-09T18:54:28.592Z,41.80
2022-08-09T18:57:05.907Z,42.00
2022-08-09T18:59:51.342Z,42.20
2022-08-09T19:02:24.110Z,42.70
2022-08-09T19:05:14.440Z,42.70
2022-08-09T19:08:03.565Z,43.00
2022-08-09T19:10:37.887Z,43.20
2022-08-09T19:13:22.858Z,43.30
2022-08-09T19:16:01.909Z,43.60
2022-08-09T19:18:33.060Z,43.50
2022-08-09T19:21:09.688Z,44.10
2022-08-09T19:24:33.432Z,44.30
2022-08-09T19:26:31.584Z,44.50
2022-08-09T19:29:15.054Z,44.50
2022-08-09T19:31:51.115Z,44.90
2022-08-09T19:34:22.860Z,44.80
2022-08-09T19:36:57.749Z,44.90
2022-08-09T19:39:43.539Z,45.40
2022-08-09T19:42:29.325Z,45.60
2022-08-09T19:44:56.542Z,45.70
2022-08-09T19:47:27.018Z,45.80
2022-08-09T19:50:06.830Z,45.90
2022-08-09T19:52:49.673Z,46.20
2022-08-09T19:55:30.848Z,46.30
2022-08-09T19:58:16.569Z,46.60
2022-08-09T20:00:45.789Z,46.70
2022-08-09T20:04:09.708Z,47.00
2022-08-09T20:06:03.274Z,47.10
2022-08-09T20:08:34.776Z,47.20
2022-08-09T20:11:04.402Z,47.30
2022-08-09T20:13:36.843Z,47.50
2022-08-09T20:16:38.056Z,47.20
2022-08-09T20:19:42.263Z,47.50
2022-08-09T20:21:56.355Z,47.50
2022-08-09T20:24:31.930Z,47.60
2022-08-09T20:27:05.601Z,47.70
2022-08-09T20:29:38.677Z,48.00
2022-08-09T20:32:30.726Z,48.40
2022-08-09T20:34:57.183Z,48.60
2022-08-09T20:37:24.982Z,48.90
2022-08-09T20:40:14.793Z,48.90
2022-08-09T20:42:53.191Z,48.90
2022-08-09T20:46:00.838Z,48.90
2022-08-09T20:48:20.880Z,49.00
2022-08-09T20:50:54.299Z,49.10
2022-08-09T20:53:37.542Z,49.40
2022-08-09T20:56:21.085Z,49.50
2022-08-09T20:58:54.552Z,49.90
2022-08-09T21:01:35.287Z,50.00
2022-08-09T21:05:50.799Z,50.00
2022-08-09T21:07:10.972Z,50.00
2022-08-09T21:09:45.615Z,50.10
2022-08-09T21:12:23.329Z,50.50
2022-08-09T21:14:50.659Z,50.40
2022-08-09T21:18:11.500Z,50.50
2022-08-09T21:20:25.353Z,50.60
2022-08-09T21:22:54.581Z,50.80
2022-08-09T21:25:44.441Z,50.90
2022-08-09T21:28:34.699Z,51.20
2022-08-09T21:31:17.580Z,51.10
2022-08-09T21:33:52.671Z,51.60
2022-08-09T21:36:28.845Z,51.40
2022-08-09T21:38:59.352Z,51.70
2022-08-09T21:42:04.080Z,51.50
2022-08-09T21:44:32.983Z,51.80
2022-08-09T21:47:07.401Z,51.50
2022-08-09T21:49:39.383Z,51.60
2022-08-09T21:52:17.520Z,51.80
2022-08-09T21:55:03.621Z,52.20
2022-08-09T21:57:38.943Z,52.60
2022-08-09T22:00:34.402Z,52.00
2022-08-09T22:03:06.294Z,52.80
2022-08-09T22:05:37.411Z,52.30
2022-08-09T22:08:14.687Z,52.30
2022-08-09T22:11:00.670Z,52.40
2022-08-09T22:13:36.805Z,53.00
2022-08-09T22:16:09.253Z,52.70
2022-08-09T22:18:54.583Z,53.40
2022-08-09T22:21:50.294Z,53.30
2022-08-09T22:24:16.972Z,53.40
2022-08-09T22:26:51.153Z,53.30
2022-08-09T22:29:26.852Z,52.60
2022-08-09T22:31:59.839Z,53.10
2022-08-09T22:34:28.217Z,53.20
2022-08-09T22:36:58.237Z,53.30
2022-08-09T22:39:55.481Z,53.40
2022-08-09T22:42:21.857Z,53.60
2022-08-09T22:45:00.528Z,53.60
2022-08-09T22:48:11.353Z,54.20
2022-08-09T22:50:32.096Z,53.80
2022-08-09T22:53:03.668Z,53.80
2022-08-09T22:56:05.834Z,54.10
2022-08-09T22:58:30.758Z,54.50
2022-08-09T23:01:05.520Z,54.50
2022-08-09T23:04:05.858Z,54.80
2022-08-09T23:06:35.734Z,55.10
2022-08-09T23:09:07.927Z,55.00
2022-08-09T23:11:35.540Z,55.40
2022-08-09T23:14:03.785Z,55.30
2022-08-09T23:16:31.856Z,55.40
2022-08-09T23:18:59.333Z,55.50
2022-08-09T23:21:30.078Z,55.70
2022-08-09T23:24:06.489Z,55.80
2022-08-09T23:26:39.238Z,55.70
2022-08-09T23:29:11.364Z,55.60
2022-08-09T23:31:38.628Z,55.80
2022-08-09T23:34:05.833Z,55.90
2022-08-09T23:36:35.247Z,56.10
2022-08-09T23:39:05.081Z,56.30
2022-08-09T23:41:32.918Z,56.30
2022-08-09T23:44:02.482Z,56.50
2022-08-09T23:46:30.831Z,56.70
2022-08-09T23:48:59.269Z,56.80
2022-08-09T23:51:27.827Z,56.90
2022-08-09T23:54:02.547Z,57.10
2022-08-09T23:56:51.947Z,57.10
2022-08-09T23:59:20.780Z,56.90
